createdAt,value
2022-10-11T04:17:54.490Z,8.55
2022-10-11T04:20:57.473Z,8.38
2022-10-11T04:24:00.093Z,8.98
2022-10-11T04:27:02.794Z,8.85
2022-10-11T04:30:05.715Z,9.07
2022-10-11T04:33:08.719Z,9.02
2022-10-11T04:36:11.265Z,10.00
2022-10-11T04:39:14.043Z,9.65
2022-10-11T04:42:16.593Z,9.63
2022-10-11T04:45:20.658Z,9.05
2022-10-11T04:48:23.062Z,8.55
2022-10-11T04:51:25.905Z,8.43
2022-10-11T04:54:28.316Z,7.75
2022-10-11T04:57:31.059Z,8.02
2022-10-11T05:00:33.513Z,8.35
2022-10-11T05:03:36.816Z,8.52
2022-10-11T05:06:39.351Z,8.27
2022-10-11T05:09:42.021Z,8.35
2022-10-11T05:12:44.482Z,8.80
2022-10-11T05:15:47.204Z,8.60
2022-10-11T05:18:50.031Z,7.93
2022-10-11T05:21:52.795Z,7.95
2022-10-11T05:24:55.176Z,8.30
2022-10-11T05:27:57.813Z,8.70
2022-10-11T05:31:00.475Z,8.07
2022-10-11T05:34:03.238Z,8.02
2022-10-11T05:37:05.731Z,7.82
2022-10-11T05:40:11.996Z,8.43
2022-10-11T05:43:14.920Z,8.15
2022-10-11T05:46:17.617Z,8.23
2022-10-11T05:49:19.962Z,8.07
2022-10-11T05:52:22.700Z,8.07
2022-10-11T05:55:25.214Z,7.95
2022-10-11T05:58:28.270Z,7.53
2022-10-11T06:01:33.025Z,7.45
2022-10-11T06:04:37.057Z,7.55
2022-10-11T06:07:39.727Z,7.80
2022-10-11T06:10:42.527Z,7.68
2022-10-11T06:13:45.084Z,7.12
2022-10-11T06:16:47.823Z,7.32
2022-10-11T06:19:51.332Z,7.47
2022-10-11T06:26:32.047Z,7.32
2022-10-11T06:29:35.662Z,6.87
2022-10-11T06:36:16.847Z,7.37
2022-10-11T06:39:19.541Z,8.10
2022-10-11T06:42:21.962Z,7.90
2022-10-11T06:45:24.707Z,7.85
2022-10-11T06:55:38.203Z,7.37
2022-10-11T07:02:25.781Z,7.00
2022-10-11T07:05:37.143Z,7.53
2022-10-11T07:08:40.497Z,7.53
2022-10-11T07:11:43.213Z,7.97
2022-10-11T07:14:45.664Z,8.40
2022-10-11T07:17:48.404Z,8.35
2022-10-11T07:20:50.944Z,7.90
2022-10-11T07:23:53.650Z,7.97
2022-10-11T07:26:56.056Z,8.05
2022-10-11T07:29:58.882Z,7.78
2022-10-11T07:33:01.259Z,7.72
2022-10-11T07:36:05.102Z,6.95
2022-10-11T07:39:08.948Z,7.35
2022-10-11T07:42:11.655Z,8.10
2022-10-11T07:45:14.194Z,6.90
2022-10-11T07:48:17.097Z,6.93
2022-10-11T07:51:22.493Z,7.22
2022-10-11T07:54:25.257Z,6.90
2022-10-11T07:57:27.788Z,7.35
2022-10-11T08:00:30.586Z,6.10
2022-10-11T08:03:33.517Z,6.72
2022-10-11T08:06:36.610Z,6.80
2022-10-11T08:09:39.269Z,6.80
2022-10-11T08:12:41.787Z,6.87
2022-10-11T08:15:44.467Z,6.95
2022-10-11T08:18:47.448Z,6.50
2022-10-11T08:21:50.230Z,6.78
2022-10-11T08:24:52.651Z,6.78
2022-10-11T08:27:55.749Z,7.37
2022-10-11T08:30:59.764Z,7.18
2022-10-11T08:34:02.833Z,6.40
2022-10-11T08:37:05.543Z,6.97
2022-10-11T08:40:15.072Z,6.97
2022-10-11T08:43:44.582Z,7.00
2022-10-11T08:47:00.295Z,7.65
2022-10-11T08:50:06.127Z,7.62
2022-10-11T08:53:25.284Z,6.93
2022-10-11T08:56:31.064Z,7.75
2022-10-11T08:59:41.554Z,7.82
2022-10-11T09:03:08.609Z,8.30
2022-10-11T09:06:24.231Z,8.10
2022-10-11T09:09:44.705Z,8.05
2022-10-11T09:13:13.889Z,8.50
2022-10-11T09:16:26.157Z,7.75
2022-10-11T09:19:41.110Z,8.00
2022-10-11T09:22:52.780Z,7.28
2022-10-11T09:26:03.268Z,8.00
2022-10-11T09:29:20.250Z,8.07
2022-10-11T09:32:29.359Z,8.23
2022-10-11T09:35:37.029Z,8.30
2022-10-11T09:38:48.367Z,8.13
2022-10-11T09:45:28.866Z,8.65
2022-10-11T09:48:41.334Z,8.23
2022-10-11T09:51:55.653Z,8.00
2022-10-11T09:55:00.912Z,9.15
2022-10-11T09:58:06.169Z,8.10
2022-10-11T10:01:11.632Z,8.63
2022-10-11T10:04:20.001Z,8.45
2022-10-11T10:07:23.216Z,9.63
2022-10-11T10:10:59.629Z,7.95
2022-10-11T10:14:02.241Z,9.55
2022-10-11T10:17:17.086Z,9.63
2022-10-11T10:20:25.770Z,10.63
2022-10-11T10:23:35.029Z,9.85
2022-10-11T10:26:37.531Z,10.02
2022-10-11T10:29:41.966Z,9.90
2022-10-11T10:33:04.771Z,9.93
2022-10-11T10:36:18.733Z,10.60
2022-10-11T10:39:24.132Z,10.25
2022-10-11T10:42:27.561Z,10.93
2022-10-11T10:45:46.090Z,11.15
2022-10-11T10:52:42.793Z,10.35
2022-10-11T10:55:51.981Z,11.25
2022-10-11T10:59:12.450Z,10.90
2022-10-11T11:02:40.088Z,11.02
2022-10-11T11:06:09.952Z,11.80
2022-10-11T11:09:17.147Z,11.68
2022-10-11T11:12:50.408Z,11.05
2022-10-11T11:16:00.211Z,12.00
2022-10-11T11:19:27.835Z,11.30
2022-10-11T11:22:44.399Z,11.80
2022-10-11T11:26:00.134Z,11.80
2022-10-11T11:32:45.946Z,11.05
2022-10-11T11:35:53.480Z,11.40
2022-10-11T11:39:00.018Z,11.85
2022-10-11T11:42:11.831Z,11.82
2022-10-11T11:45:33.640Z,10.93
2022-10-11T11:48:37.392Z,11.98
2022-10-11T11:51:44.187Z,12.25
2022-10-11T11:55:13.195Z,12.30
2022-10-11T11:58:59.603Z,12.65
2022-10-11T12:02:24.269Z,13.05
2022-10-11T12:05:32.217Z,12.48
2022-10-11T12:08:36.404Z,11.10
2022-10-11T12:15:32.133Z,12.80
2022-10-11T12:18:41.899Z,12.05
2022-10-11T12:21:45.128Z,12.32
2022-10-11T12:25:00.077Z,12.70
2022-10-11T12:28:37.377Z,13.00
2022-10-11T12:31:45.164Z,13.52
2022-10-11T12:38:39.954Z,12.80
2022-10-11T12:41:51.579Z,13.18
2022-10-11T12:45:24.173Z,12.63
2022-10-11T12:48:39.917Z,12.77
2022-10-11T12:52:02.723Z,12.45
2022-10-11T12:55:24.335Z,12.68
2022-10-11T12:58:40.551Z,13.45
2022-10-11T13:01:52.733Z,13.23
2022-10-11T13:05:08.130Z,12.18
2022-10-11T13:08:27.100Z,11.70
2022-10-11T13:11:38.874Z,12.85
2022-10-11T13:15:07.096Z,12.45
2022-10-11T13:18:14.642Z,12.23
2022-10-11T13:21:36.260Z,12.85
2022-10-11T13:24:40.211Z,12.15
2022-10-11T13:27:43.865Z,12.93
2022-10-11T13:30:54.694Z,12.35
2022-10-11T13:33:59.301Z,12.30
2022-10-11T13:37:01.818Z,12.18
2022-10-11T13:40:05.596Z,12.45
2022-10-11T13:43:08.171Z,11.90
2022-10-11T13:46:20.174Z,12.20
2022-10-11T13:49:27.154Z,11.80
2022-10-11T13:52:29.946Z,12.55
2022-10-11T13:55:47.525Z,12.37
2022-10-11T13:58:53.138Z,12.40
2022-10-11T14:02:01.240Z,12.27
2022-10-11T14:05:04.293Z,12.07
2022-10-11T14:08:42.169Z,12.02
2022-10-11T14:11:45.795Z,12.90
2022-10-11T14:14:48.239Z,12.43
2022-10-11T14:17:51.537Z,12.73
2022-10-11T14:20:54.328Z,12.98
2022-10-11T14:23:58.781Z,13.73
2022-10-11T14:27:05.746Z,13.40
2022-10-11T14:30:31.855Z,13.10
2022-10-11T14:33:37.424Z,13.82
2022-10-11T14:36:40.296Z,13.93
2022-10-11T14:39:43.429Z,13.93
2022-10-11T14:42:46.617Z,13.85
2022-10-11T14:45:49.074Z,12.90
2022-10-11T14:48:56.711Z,13.75
2022-10-11T14:51:59.666Z,14.32
2022-10-11T14:55:02.343Z,12.88
2022-10-11T14:58:05.949Z,12.40
2022-10-11T15:01:14.033Z,12.02
2022-10-11T15:04:16.622Z,11.88
2022-10-11T15:07:19.467Z,12.02
2022-10-11T15:10:23.953Z,12.32
2022-10-11T15:13:26.623Z,11.48
2022-10-11T15:16:29.048Z,12.70
2022-10-11T15:19:31.743Z,12.02
2022-10-11T15:22:34.304Z,12.73
2022-10-11T15:25:38.516Z,12.00
2022-10-11T15:28:42.079Z,12.18
